LTBL/IGI METAR and TAF weather

Enter ICAO airport designator
Station Type Date Time Source
LTBL METAR 2019/10/15 17:50 UTC NOAA

LTBL 151750Z 00000KT CAVOK 20/18 Q1015 NOSIG RMK RWY17 VRB02KT


Station Type Date Time Source
LTBL Decoded METAR 2019/10/15 17:50 UTC NOAA

Izmir / Cigli, Turkey (LTBL) 38-30N 027-01E 5M
Oct 15, 2019 - 01:50 PM EDT / 2019.10.15 1750 UTC
Wind: Calm:0
Visibility: greater than 7 mile(s):0
Temperature: 68 F (20 C)
Dew Point: 64 F (18 C)
Relative Humidity: 88%
Pressure (altimeter): 29.97 in. Hg (1015 hPa)
ob: LTBL 151750Z 00000KT CAVOK 20/18 Q1015 NOSIG RMK RWY17 VRB02KT
cycle: 18

Station Type Date Time Source
LTBL TAF UTC NOAA

Error!

Example: see airport list